Akiak, Alaska
Current Conditions -  °F | °C
As of 3:56 PM on Saturday 20 Dec 2014 (Local Time) from PFKW Reporting Station
Scattered Clouds Scattered Clouds  
Wind Chill: -6°   Ceiling: Unl
Heat Index:   Visibility: 10mi
Dew Point:   Wind: 10mph
Humidity: 80%   Direction: 360°N
Pressure: 29.06"   Gusts: NA
Location:  60.92°N, 161.23°W
Report Text: PFKW 210056Z AUTO 36009KT 10SM SCT120 M13/M16 A2906 RMK AO2 SLP842 T11331161 FZRANO
Loading
Personal Weather Stations






























Interactive Weather Map New forecast layout! Learn more

10-Day Weather Forecast

Advertisements
Track Severe Weather on mobile